createdAt,value
2023-10-11T04:30:34.231Z,12.45
2023-10-11T04:34:40.181Z,11.63
2023-10-11T04:38:49.077Z,10.88
2023-10-11T04:43:06.159Z,10.90
2023-10-11T04:47:13.005Z,11.80
2023-10-11T04:51:22.694Z,12.35
2023-10-11T04:55:36.597Z,14.18
2023-10-11T04:59:40.247Z,18.77
2023-10-11T05:03:43.994Z,15.05
2023-10-11T05:07:47.569Z,13.60
2023-10-11T05:11:51.968Z,13.30
2023-10-11T05:15:56.121Z,13.10
2023-10-11T05:20:05.083Z,16.00
2023-10-11T05:24:27.826Z,14.90
2023-10-11T05:28:45.629Z,15.33
2023-10-11T05:32:59.761Z,16.25
2023-10-11T05:37:21.030Z,17.30
2023-10-11T05:41:56.172Z,14.23
2023-10-11T05:46:17.854Z,15.48
2023-10-11T05:50:42.783Z,16.05
2023-10-11T05:54:55.439Z,16.05
2023-10-11T05:59:17.162Z,16.13
2023-10-11T06:03:26.545Z,15.73
2023-10-11T06:07:41.867Z,15.52
2023-10-11T06:11:51.984Z,14.93
2023-10-11T06:16:01.498Z,15.13
2023-10-11T06:20:23.664Z,13.02
2023-10-11T06:24:27.330Z,14.10
2023-10-11T06:28:33.038Z,15.15
2023-10-11T06:32:37.630Z,14.43
2023-10-11T06:36:40.442Z,14.13
2023-10-11T06:41:15.772Z,13.50
2023-10-11T06:45:18.534Z,13.82
2023-10-11T06:49:21.768Z,13.40
2023-10-11T06:53:24.576Z,12.87
2023-10-11T06:57:28.269Z,13.00
2023-10-11T07:01:32.187Z,14.02
2023-10-11T07:05:42.623Z,12.83
2023-10-11T07:09:57.500Z,13.48
2023-10-11T07:14:02.464Z,12.88
2023-10-11T07:18:10.343Z,13.93
2023-10-11T07:22:20.201Z,12.03
2023-10-11T07:26:32.842Z,13.20
2023-10-11T07:30:40.404Z,13.43
2023-10-11T07:34:50.341Z,12.87
2023-10-11T07:39:01.685Z,12.07
2023-10-11T07:43:06.219Z,11.45
2023-10-11T07:47:20.256Z,10.90
2023-10-11T07:51:25.730Z,10.57
2023-10-11T07:55:31.663Z,11.40
2023-10-11T07:59:34.660Z,10.25
2023-10-11T08:03:38.092Z,9.57
2023-10-11T08:07:42.485Z,11.23
2023-10-11T08:11:54.477Z,9.98
2023-10-11T08:15:59.451Z,11.03
2023-10-11T08:20:02.520Z,10.77
2023-10-11T08:24:16.510Z,9.88
2023-10-11T08:28:29.388Z,9.03
2023-10-11T08:32:44.583Z,8.60
2023-10-11T08:36:47.965Z,9.77
2023-10-11T08:45:51.296Z,10.03
2023-10-11T08:49:58.494Z,9.88
2023-10-11T08:54:16.442Z,9.07
2023-10-11T08:58:29.703Z,9.33
2023-10-11T09:02:39.023Z,9.55
2023-10-11T09:06:49.625Z,8.70
2023-10-11T09:11:21.260Z,9.23
2023-10-11T09:15:59.125Z,10.27
2023-10-11T09:20:22.257Z,9.75
2023-10-11T09:24:44.735Z,9.15
2023-10-11T09:28:57.906Z,8.10
2023-10-11T09:33:27.444Z,7.18
2023-10-11T09:37:45.330Z,6.28
2023-10-11T09:42:16.981Z,7.70
2023-10-11T09:46:22.948Z,6.32
2023-10-11T09:50:27.943Z,6.60
2023-10-11T09:54:30.998Z,5.50
2023-10-11T09:59:23.983Z,6.43
2023-10-11T10:03:27.068Z,6.30
2023-10-11T10:07:43.764Z,5.62
2023-10-11T10:12:14.744Z,4.97
2023-10-11T10:17:01.480Z,5.28
2023-10-11T10:21:06.242Z,5.65
2023-10-11T10:25:20.186Z,5.73
2023-10-11T10:29:43.059Z,5.15
2023-10-11T10:34:09.813Z,4.72
2023-10-11T10:38:12.621Z,4.77
2023-10-11T10:42:17.586Z,5.47
2023-10-11T10:46:20.572Z,5.37
2023-10-11T10:50:27.134Z,4.93
2023-10-11T10:54:35.247Z,4.37
2023-10-11T10:58:47.869Z,4.47
2023-10-11T11:02:52.336Z,4.45
2023-10-11T11:06:57.397Z,5.20
2023-10-11T11:11:25.754Z,4.82
2023-10-11T11:15:38.260Z,4.60
2023-10-11T11:19:42.719Z,4.33
2023-10-11T11:23:47.292Z,4.30
2023-10-11T11:28:02.366Z,5.45
2023-10-11T11:32:16.175Z,4.95
2023-10-11T11:36:33.519Z,5.17
2023-10-11T11:40:39.542Z,6.00
2023-10-11T11:44:45.061Z,5.20
2023-10-11T11:48:48.721Z,6.40
2023-10-11T11:52:52.032Z,5.60
2023-10-11T11:56:57.377Z,5.57
2023-10-11T12:01:17.009Z,5.20
2023-10-11T12:05:20.808Z,4.68
2023-10-11T12:09:23.947Z,5.45
2023-10-11T12:13:29.791Z,4.72
2023-10-11T12:17:40.875Z,4.73
2023-10-11T12:21:50.524Z,4.30
2023-10-11T12:25:59.305Z,4.57
2023-10-11T12:30:09.578Z,4.40
2023-10-11T12:34:12.753Z,3.92
2023-10-11T12:38:16.563Z,3.75
2023-10-11T12:42:19.561Z,3.90
2023-10-11T12:46:22.812Z,4.10
2023-10-11T12:50:25.620Z,4.22
2023-10-11T12:54:29.357Z,4.40
2023-10-11T12:58:40.915Z,3.47
2023-10-11T13:02:49.895Z,4.15
2023-10-11T13:06:52.643Z,3.75
2023-10-11T13:10:56.249Z,3.83
2023-10-11T13:15:03.813Z,3.33
2023-10-11T13:19:10.275Z,3.33
2023-10-11T13:23:13.079Z,3.27
2023-10-11T13:27:16.208Z,3.55
2023-10-11T13:31:19.162Z,3.85
2023-10-11T13:35:23.067Z,3.55
2023-10-11T13:39:29.441Z,2.90
2023-10-11T13:43:34.244Z,2.97
2023-10-11T13:47:40.105Z,3.20
2023-10-11T13:51:43.442Z,3.87
2023-10-11T13:55:48.401Z,3.20
2023-10-11T13:59:53.430Z,3.28
2023-10-11T14:03:58.558Z,3.60
2023-10-11T14:08:05.085Z,2.75
2023-10-11T14:12:13.756Z,3.50
2023-10-11T14:16:31.424Z,3.10
2023-10-11T14:20:34.253Z,2.73
2023-10-11T14:24:37.385Z,3.20
2023-10-11T14:28:40.409Z,3.08
2023-10-11T14:32:46.089Z,3.60
2023-10-11T14:36:51.974Z,2.85
2023-10-11T14:40:55.049Z,3.20
2023-10-11T14:44:58.919Z,3.70
2023-10-11T14:49:02.041Z,2.50
2023-10-11T14:53:05.464Z,2.85
2023-10-11T14:57:09.030Z,2.80
2023-10-11T15:01:14.586Z,3.10
2023-10-11T15:05:17.862Z,3.00
2023-10-11T15:09:21.240Z,3.40
2023-10-11T15:13:24.314Z,3.00
2023-10-11T15:17:27.535Z,3.47
2023-10-11T15:21:30.727Z,3.30
2023-10-11T15:25:33.740Z,3.40
